sensor_id;sensor_type;location;lat;lon;timestamp;P1;durP1;ratioP1;P2;durP2;ratioP2
16969;SDS011;8601;48.718;8.992;2023-04-23T00:01:49;4.57;;;2.70;;
16969;SDS011;8601;48.718;8.992;2023-04-23T00:04:19;2.37;;;2.10;;
16969;SDS011;8601;48.718;8.992;2023-04-23T00:06:47;4.00;;;2.50;;
16969;SDS011;8601;48.718;8.992;2023-04-23T00:09:17;4.63;;;2.97;;
16969;SDS011;8601;48.718;8.992;2023-04-23T00:11:44;3.47;;;2.60;;
16969;SDS011;8601;48.718;8.992;2023-04-23T00:14:11;4.17;;;2.50;;
16969;SDS011;8601;48.718;8.992;2023-04-23T00:16:40;4.30;;;2.67;;
16969;SDS011;8601;48.718;8.992;2023-04-23T00:19:07;3.27;;;2.50;;
16969;SDS011;8601;48.718;8.992;2023-04-23T00:21:34;4.73;;;2.40;;
16969;SDS011;8601;48.718;8.992;2023-04-23T00:24:01;4.10;;;2.60;;
16969;SDS011;8601;48.718;8.992;2023-04-23T00:26:29;2.87;;;2.20;;
16969;SDS011;8601;48.718;8.992;2023-04-23T00:28:56;4.73;;;2.43;;
16969;SDS011;8601;48.718;8.992;2023-04-23T00:31:23;3.43;;;2.23;;
16969;SDS011;8601;48.718;8.992;2023-04-23T00:33:51;3.33;;;2.57;;
16969;SDS011;8601;48.718;8.992;2023-04-23T00:36:18;4.60;;;2.30;;
16969;SDS011;8601;48.718;8.992;2023-04-23T00:38:45;2.73;;;2.30;;
16969;SDS011;8601;48.718;8.992;2023-04-23T00:41:12;2.60;;;2.40;;
16969;SDS011;8601;48.718;8.992;2023-04-23T00:43:41;4.87;;;2.67;;
16969;SDS011;8601;48.718;8.992;2023-04-23T00:46:09;2.27;;;1.97;;
16969;SDS011;8601;48.718;8.992;2023-04-23T00:48:36;3.00;;;2.13;;
16969;SDS011;8601;48.718;8.992;2023-04-23T00:51:05;3.53;;;2.23;;
16969;SDS011;8601;48.718;8.992;2023-04-23T00:53:32;3.50;;;2.50;;
16969;SDS011;8601;48.718;8.992;2023-04-23T00:56:00;3.23;;;2.30;;
16969;SDS011;8601;48.718;8.992;2023-04-23T00:58:29;2.40;;;2.20;;
16969;SDS011;8601;48.718;8.992;2023-04-23T01:00:59;3.23;;;2.70;;
16969;SDS011;8601;48.718;8.992;2023-04-23T01:03:28;3.10;;;2.63;;
16969;SDS011;8601;48.718;8.992;2023-04-23T01:05:56;2.90;;;2.57;;
16969;SDS011;8601;48.718;8.992;2023-04-23T01:08:23;5.23;;;2.40;;
16969;SDS011;8601;48.718;8.992;2023-04-23T01:10:52;3.73;;;2.60;;
16969;SDS011;8601;48.718;8.992;2023-04-23T01:13:19;2.10;;;2.00;;
16969;SDS011;8601;48.718;8.992;2023-04-23T01:15:46;4.23;;;2.27;;
16969;SDS011;8601;48.718;8.992;2023-04-23T01:18:15;5.50;;;2.80;;
16969;SDS011;8601;48.718;8.992;2023-04-23T01:20:44;3.67;;;2.50;;
16969;SDS011;8601;48.718;8.992;2023-04-23T01:23:12;3.77;;;2.83;;
16969;SDS011;8601;48.718;8.992;2023-04-23T01:25:39;2.97;;;2.60;;
16969;SDS011;8601;48.718;8.992;2023-04-23T01:28:06;2.97;;;2.70;;
16969;SDS011;8601;48.718;8.992;2023-04-23T01:30:35;3.67;;;3.00;;
16969;SDS011;8601;48.718;8.992;2023-04-23T01:33:03;3.97;;;2.67;;
16969;SDS011;8601;48.718;8.992;2023-04-23T01:35:31;3.40;;;2.70;;
16969;SDS011;8601;48.718;8.992;2023-04-23T01:37:59;5.10;;;2.63;;
16969;SDS011;8601;48.718;8.992;2023-04-23T01:40:30;3.57;;;2.53;;
16969;SDS011;8601;48.718;8.992;2023-04-23T01:42:57;3.27;;;2.57;;
16969;SDS011;8601;48.718;8.992;2023-04-23T01:45:24;5.37;;;2.83;;
16969;SDS011;8601;48.718;8.992;2023-04-23T01:47:51;3.27;;;2.77;;
16969;SDS011;8601;48.718;8.992;2023-04-23T01:50:18;3.10;;;2.57;;
16969;SDS011;8601;48.718;8.992;2023-04-23T01:52:47;3.37;;;2.77;;
16969;SDS011;8601;48.718;8.992;2023-04-23T01:55:14;3.20;;;2.60;;
16969;SDS011;8601;48.718;8.992;2023-04-23T01:57:44;4.17;;;2.57;;
16969;SDS011;8601;48.718;8.992;2023-04-23T02:00:13;3.03;;;2.57;;
16969;SDS011;8601;48.718;8.992;2023-04-23T02:02:41;2.90;;;2.27;;
16969;SDS011;8601;48.718;8.992;2023-04-23T02:05:09;5.40;;;3.57;;
16969;SDS011;8601;48.718;8.992;2023-04-23T02:07:38;2.63;;;2.37;;
16969;SDS011;8601;48.718;8.992;2023-04-23T02:10:05;2.40;;;2.23;;
16969;SDS011;8601;48.718;8.992;2023-04-23T02:12:33;2.93;;;2.37;;
16969;SDS011;8601;48.718;8.992;2023-04-23T02:15:02;3.93;;;2.20;;
16969;SDS011;8601;48.718;8.992;2023-04-23T02:17:30;3.33;;;2.30;;
16969;SDS011;8601;48.718;8.992;2023-04-23T02:19:57;3.23;;;2.07;;
16969;SDS011;8601;48.718;8.992;2023-04-23T02:22:24;4.60;;;2.53;;
16969;SDS011;8601;48.718;8.992;2023-04-23T02:24:52;3.23;;;2.20;;
16969;SDS011;8601;48.718;8.992;2023-04-23T02:27:20;3.77;;;2.50;;
16969;SDS011;8601;48.718;8.992;2023-04-23T02:29:47;3.33;;;2.40;;
16969;SDS011;8601;48.718;8.992;2023-04-23T02:32:15;2.20;;;2.00;;
16969;SDS011;8601;48.718;8.992;2023-04-23T02:34:42;2.37;;;2.17;;
16969;SDS011;8601;48.718;8.992;2023-04-23T02:37:10;2.20;;;2.00;;
16969;SDS011;8601;48.718;8.992;2023-04-23T02:39:38;2.90;;;2.20;;
16969;SDS011;8601;48.718;8.992;2023-04-23T02:42:05;2.03;;;1.83;;
16969;SDS011;8601;48.718;8.992;2023-04-23T02:44:32;3.00;;;1.93;;
16969;SDS011;8601;48.718;8.992;2023-04-23T02:46:59;2.67;;;2.20;;
16969;SDS011;8601;48.718;8.992;2023-04-23T02:49:27;3.77;;;1.83;;
16969;SDS011;8601;48.718;8.992;2023-04-23T02:51:54;3.83;;;2.37;;
16969;SDS011;8601;48.718;8.992;2023-04-23T02:54:21;1.97;;;1.80;;
16969;SDS011;8601;48.718;8.992;2023-04-23T02:56:48;2.63;;;1.97;;
16969;SDS011;8601;48.718;8.992;2023-04-23T02:59:16;2.63;;;1.80;;
16969;SDS011;8601;48.718;8.992;2023-04-23T03:01:42;2.10;;;1.90;;
16969;SDS011;8601;48.718;8.992;2023-04-23T03:04:10;2.10;;;1.70;;
16969;SDS011;8601;48.718;8.992;2023-04-23T03:06:39;1.73;;;1.63;;
16969;SDS011;8601;48.718;8.992;2023-04-23T03:09:06;1.97;;;1.80;;
16969;SDS011;8601;48.718;8.992;2023-04-23T03:11:35;1.80;;;1.70;;
16969;SDS011;8601;48.718;8.992;2023-04-23T03:14:01;2.40;;;1.63;;
16969;SDS011;8601;48.718;8.992;2023-04-23T03:16:28;2.37;;;1.60;;
16969;SDS011;8601;48.718;8.992;2023-04-23T03:18:56;1.83;;;1.70;;
16969;SDS011;8601;48.718;8.992;2023-04-23T03:21:25;1.93;;;1.57;;
16969;SDS011;8601;48.718;8.992;2023-04-23T03:23:53;1.40;;;1.30;;
16969;SDS011;8601;48.718;8.992;2023-04-23T03:26:20;1.60;;;1.50;;
16969;SDS011;8601;48.718;8.992;2023-04-23T03:28:47;2.17;;;1.50;;
16969;SDS011;8601;48.718;8.992;2023-04-23T03:31:14;2.00;;;1.40;;
16969;SDS011;8601;48.718;8.992;2023-04-23T03:33:41;1.40;;;1.30;;
16969;SDS011;8601;48.718;8.992;2023-04-23T03:36:08;2.10;;;1.40;;
16969;SDS011;8601;48.718;8.992;2023-04-23T03:38:35;1.67;;;1.30;;
16969;SDS011;8601;48.718;8.992;2023-04-23T03:41:04;1.93;;;1.73;;
16969;SDS011;8601;48.718;8.992;2023-04-23T03:43:31;1.40;;;1.30;;
16969;SDS011;8601;48.718;8.992;2023-04-23T03:45:58;1.77;;;1.67;;
16969;SDS011;8601;48.718;8.992;2023-04-23T03:48:25;1.87;;;1.33;;
16969;SDS011;8601;48.718;8.992;2023-04-23T03:50:52;1.40;;;1.30;;
16969;SDS011;8601;48.718;8.992;2023-04-23T03:53:19;1.90;;;1.37;;
16969;SDS011;8601;48.718;8.992;2023-04-23T03:55:45;1.57;;;1.47;;
16969;SDS011;8601;48.718;8.992;2023-04-23T03:58:14;2.30;;;1.50;;
16969;SDS011;8601;48.718;8.992;2023-04-23T04:00:41;1.63;;;1.53;;
16969;SDS011;8601;48.718;8.992;2023-04-23T04:03:08;1.60;;;1.50;;
16969;SDS011;8601;48.718;8.992;2023-04-23T04:05:35;1.70;;;1.60;;
16969;SDS011;8601;48.718;8.992;2023-04-23T04:08:02;1.60;;;1.40;;
16969;SDS011;8601;48.718;8.992;2023-04-23T04:10:29;1.83;;;1.50;;
16969;SDS011;8601;48.718;8.992;2023-04-23T04:12:56;1.80;;;1.40;;
16969;SDS011;8601;48.718;8.992;2023-04-23T04:15:24;1.60;;;1.50;;
16969;SDS011;8601;48.718;8.992;2023-04-23T04:17:51;1.50;;;1.40;;
16969;SDS011;8601;48.718;8.992;2023-04-23T04:20:18;1.93;;;1.50;;
16969;SDS011;8601;48.718;8.992;2023-04-23T04:22:46;2.30;;;1.70;;
16969;SDS011;8601;48.718;8.992;2023-04-23T04:25:15;1.60;;;1.50;;
16969;SDS011;8601;48.718;8.992;2023-04-23T04:27:42;1.90;;;1.67;;
16969;SDS011;8601;48.718;8.992;2023-04-23T04:30:10;1.57;;;1.47;;
16969;SDS011;8601;48.718;8.992;2023-04-23T04:32:39;3.43;;;1.60;;
16969;SDS011;8601;48.718;8.992;2023-04-23T04:35:07;2.07;;;1.83;;
16969;SDS011;8601;48.718;8.992;2023-04-23T04:37:34;2.20;;;1.70;;
16969;SDS011;8601;48.718;8.992;2023-04-23T04:40:01;2.07;;;1.87;;
16969;SDS011;8601;48.718;8.992;2023-04-23T04:42:31;1.73;;;1.63;;
16969;SDS011;8601;48.718;8.992;2023-04-23T04:44:58;1.90;;;1.80;;
16969;SDS011;8601;48.718;8.992;2023-04-23T04:47:25;1.90;;;1.73;;
16969;SDS011;8601;48.718;8.992;2023-04-23T04:49:53;2.33;;;1.80;;
16969;SDS011;8601;48.718;8.992;2023-04-23T04:52:21;1.80;;;1.67;;
16969;SDS011;8601;48.718;8.992;2023-04-23T04:54:48;1.50;;;1.40;;
16969;SDS011;8601;48.718;8.992;2023-04-23T04:57:15;1.47;;;1.33;;
16969;SDS011;8601;48.718;8.992;2023-04-23T04:59:42;1.70;;;1.60;;
16969;SDS011;8601;48.718;8.992;2023-04-23T05:02:11;1.83;;;1.73;;
16969;SDS011;8601;48.718;8.992;2023-04-23T05:04:38;1.67;;;1.50;;
16969;SDS011;8601;48.718;8.992;2023-04-23T05:07:07;1.63;;;1.53;;
16969;SDS011;8601;48.718;8.992;2023-04-23T05:09:35;1.70;;;1.60;;
16969;SDS011;8601;48.718;8.992;2023-04-23T05:12:01;2.23;;;1.70;;
16969;SDS011;8601;48.718;8.992;2023-04-23T05:14:32;1.93;;;1.80;;
16969;SDS011;8601;48.718;8.992;2023-04-23T05:16:59;1.73;;;1.63;;
16969;SDS011;8601;48.718;8.992;2023-04-23T05:19:26;1.80;;;1.57;;
16969;SDS011;8601;48.718;8.992;2023-04-23T05:21:53;3.47;;;2.07;;
16969;SDS011;8601;48.718;8.992;2023-04-23T05:24:21;1.60;;;1.50;;
16969;SDS011;8601;48.718;8.992;2023-04-23T05:26:48;1.73;;;1.63;;
16969;SDS011;8601;48.718;8.992;2023-04-23T05:29:15;1.40;;;1.30;;
16969;SDS011;8601;48.718;8.992;2023-04-23T05:31:43;1.50;;;1.40;;
16969;SDS011;8601;48.718;8.992;2023-04-23T05:34:10;1.70;;;1.40;;
16969;SDS011;8601;48.718;8.992;2023-04-23T05:36:38;1.77;;;1.30;;
16969;SDS011;8601;48.718;8.992;2023-04-23T05:39:05;1.30;;;1.20;;
16969;SDS011;8601;48.718;8.992;2023-04-23T05:41:33;1.33;;;1.23;;
16969;SDS011;8601;48.718;8.992;2023-04-23T05:44:00;1.33;;;1.23;;
16969;SDS011;8601;48.718;8.992;2023-04-23T05:46:27;1.40;;;1.30;;
16969;SDS011;8601;48.718;8.992;2023-04-23T05:48:54;1.73;;;1.63;;
16969;SDS011;8601;48.718;8.992;2023-04-23T05:51:21;1.60;;;1.50;;
16969;SDS011;8601;48.718;8.992;2023-04-23T05:53:48;1.63;;;1.20;;
16969;SDS011;8601;48.718;8.992;2023-04-23T05:56:14;1.53;;;1.43;;
16969;SDS011;8601;48.718;8.992;2023-04-23T05:58:45;1.70;;;1.27;;
16969;SDS011;8601;48.718;8.992;2023-04-23T06:01:12;1.40;;;1.30;;
16969;SDS011;8601;48.718;8.992;2023-04-23T06:03:39;2.97;;;1.60;;
16969;SDS011;8601;48.718;8.992;2023-04-23T06:06:09;1.90;;;1.40;;
16969;SDS011;8601;48.718;8.992;2023-04-23T06:08:36;1.40;;;1.30;;
16969;SDS011;8601;48.718;8.992;2023-04-23T06:11:03;1.63;;;1.53;;
16969;SDS011;8601;48.718;8.992;2023-04-23T06:13:30;1.90;;;1.80;;
16969;SDS011;8601;48.718;8.992;2023-04-23T06:15:59;1.30;;;1.20;;
16969;SDS011;8601;48.718;8.992;2023-04-23T06:18:26;1.27;;;1.17;;
16969;SDS011;8601;48.718;8.992;2023-04-23T06:20:54;1.40;;;1.30;;
16969;SDS011;8601;48.718;8.992;2023-04-23T06:23:21;1.10;;;1.10;;
16969;SDS011;8601;48.718;8.992;2023-04-23T06:25:48;1.63;;;1.20;;
16969;SDS011;8601;48.718;8.992;2023-04-23T06:28:15;0.90;;;0.90;;
16969;SDS011;8601;48.718;8.992;2023-04-23T06:30:42;1.10;;;1.00;;
16969;SDS011;8601;48.718;8.992;2023-04-23T06:33:10;1.13;;;1.13;;
16969;SDS011;8601;48.718;8.992;2023-04-23T06:35:37;1.00;;;1.00;;
16969;SDS011;8601;48.718;8.992;2023-04-23T06:38:04;1.30;;;1.20;;
16969;SDS011;8601;48.718;8.992;2023-04-23T06:40:31;1.10;;;1.10;;
16969;SDS011;8601;48.718;8.992;2023-04-23T06:42:58;1.00;;;1.00;;
16969;SDS011;8601;48.718;8.992;2023-04-23T06:45:29;1.23;;;1.23;;
16969;SDS011;8601;48.718;8.992;2023-04-23T06:47:57;1.63;;;1.33;;
16969;SDS011;8601;48.718;8.992;2023-04-23T06:50:25;1.83;;;1.10;;
16969;SDS011;8601;48.718;8.992;2023-04-23T06:52:52;1.00;;;1.00;;
16969;SDS011;8601;48.718;8.992;2023-04-23T06:55:20;1.50;;;1.07;;
16969;SDS011;8601;48.718;8.992;2023-04-23T06:57:50;1.07;;;1.03;;
16969;SDS011;8601;48.718;8.992;2023-04-23T07:00:17;1.40;;;1.17;;
16969;SDS011;8601;48.718;8.992;2023-04-23T07:02:44;1.37;;;1.27;;
16969;SDS011;8601;48.718;8.992;2023-04-23T07:05:11;1.10;;;1.10;;
16969;SDS011;8601;48.718;8.992;2023-04-23T07:07:40;1.20;;;1.07;;
16969;SDS011;8601;48.718;8.992;2023-04-23T07:10:07;1.77;;;1.20;;
16969;SDS011;8601;48.718;8.992;2023-04-23T07:12:35;2.07;;;1.10;;
16969;SDS011;8601;48.718;8.992;2023-04-23T07:15:03;1.63;;;1.37;;
16969;SDS011;8601;48.718;8.992;2023-04-23T07:17:31;1.30;;;1.20;;
16969;SDS011;8601;48.718;8.992;2023-04-23T07:19:58;1.30;;;1.20;;
16969;SDS011;8601;48.718;8.992;2023-04-23T07:22:28;1.40;;;1.30;;
16969;SDS011;8601;48.718;8.992;2023-04-23T07:24:56;1.60;;;1.30;;
16969;SDS011;8601;48.718;8.992;2023-04-23T07:27:23;1.10;;;1.10;;
16969;SDS011;8601;48.718;8.992;2023-04-23T07:29:50;1.30;;;1.20;;
16969;SDS011;8601;48.718;8.992;2023-04-23T07:32:18;1.10;;;1.10;;
16969;SDS011;8601;48.718;8.992;2023-04-23T07:34:47;1.47;;;1.37;;
16969;SDS011;8601;48.718;8.992;2023-04-23T07:37:14;1.57;;;1.47;;
16969;SDS011;8601;48.718;8.992;2023-04-23T07:39:41;1.53;;;1.40;;
16969;SDS011;8601;48.718;8.992;2023-04-23T07:42:09;1.40;;;1.30;;
16969;SDS011;8601;48.718;8.992;2023-04-23T07:44:36;1.17;;;1.10;;
16969;SDS011;8601;48.718;8.992;2023-04-23T07:47:04;1.37;;;1.27;;
16969;SDS011;8601;48.718;8.992;2023-04-23T07:49:31;1.40;;;1.30;;
16969;SDS011;8601;48.718;8.992;2023-04-23T07:51:58;1.30;;;1.20;;
16969;SDS011;8601;48.718;8.992;2023-04-23T07:54:25;1.40;;;1.30;;
16969;SDS011;8601;48.718;8.992;2023-04-23T07:56:52;1.50;;;1.40;;
16969;SDS011;8601;48.718;8.992;2023-04-23T07:59:20;1.93;;;1.27;;
16969;SDS011;8601;48.718;8.992;2023-04-23T08:01:48;2.10;;;1.30;;
16969;SDS011;8601;48.718;8.992;2023-04-23T08:04:15;1.40;;;1.30;;
16969;SDS011;8601;48.718;8.992;2023-04-23T08:06:42;1.60;;;1.50;;
16969;SDS011;8601;48.718;8.992;2023-04-23T08:09:09;1.40;;;1.30;;
16969;SDS011;8601;48.718;8.992;2023-04-23T08:11:36;1.43;;;1.33;;
16969;SDS011;8601;48.718;8.992;2023-04-23T08:14:02;1.63;;;1.50;;
16969;SDS011;8601;48.718;8.992;2023-04-23T08:16:31;1.80;;;1.30;;
16969;SDS011;8601;48.718;8.992;2023-04-23T08:18:58;2.07;;;1.27;;
16969;SDS011;8601;48.718;8.992;2023-04-23T08:21:25;1.80;;;1.30;;
16969;SDS011;8601;48.718;8.992;2023-04-23T08:23:53;3.50;;;1.40;;
16969;SDS011;8601;48.718;8.992;2023-04-23T08:26:19;1.37;;;1.13;;
16969;SDS011;8601;48.718;8.992;2023-04-23T08:28:47;1.43;;;1.33;;
16969;SDS011;8601;48.718;8.992;2023-04-23T08:31:14;2.00;;;1.40;;
16969;SDS011;8601;48.718;8.992;2023-04-23T08:33:44;1.63;;;1.47;;
16969;SDS011;8601;48.718;8.992;2023-04-23T08:36:11;1.60;;;1.47;;
16969;SDS011;8601;48.718;8.992;2023-04-23T08:38:39;1.30;;;1.20;;
16969;SDS011;8601;48.718;8.992;2023-04-23T08:41:07;1.53;;;1.30;;
16969;SDS011;8601;48.718;8.992;2023-04-23T08:43:37;2.67;;;1.70;;
16969;SDS011;8601;48.718;8.992;2023-04-23T08:46:10;2.53;;;1.30;;
16969;SDS011;8601;48.718;8.992;2023-04-23T08:48:38;1.50;;;1.40;;
16969;SDS011;8601;48.718;8.992;2023-04-23T08:51:08;1.50;;;1.40;;
16969;SDS011;8601;48.718;8.992;2023-04-23T08:53:38;2.50;;;1.30;;
16969;SDS011;8601;48.718;8.992;2023-04-23T08:56:09;1.63;;;1.53;;
16969;SDS011;8601;48.718;8.992;2023-04-23T08:58:38;1.87;;;1.50;;
16969;SDS011;8601;48.718;8.992;2023-04-23T09:01:07;2.10;;;1.30;;
16969;SDS011;8601;48.718;8.992;2023-04-23T09:03:35;1.40;;;1.30;;
16969;SDS011;8601;48.718;8.992;2023-04-23T09:06:02;1.60;;;1.50;;
16969;SDS011;8601;48.718;8.992;2023-04-23T09:08:31;1.57;;;1.30;;
16969;SDS011;8601;48.718;8.992;2023-04-23T09:10:59;1.53;;;1.40;;
16969;SDS011;8601;48.718;8.992;2023-04-23T09:13:28;2.50;;;1.63;;
16969;SDS011;8601;48.718;8.992;2023-04-23T09:15:56;1.47;;;1.37;;
16969;SDS011;8601;48.718;8.992;2023-04-23T09:18:23;2.50;;;1.87;;
16969;SDS011;8601;48.718;8.992;2023-04-23T09:20:50;3.50;;;1.60;;
16969;SDS011;8601;48.718;8.992;2023-04-23T09:23:20;2.23;;;1.40;;
16969;SDS011;8601;48.718;8.992;2023-04-23T09:25:50;1.47;;;1.30;;
16969;SDS011;8601;48.718;8.992;2023-04-23T09:28:17;1.40;;;1.30;;
16969;SDS011;8601;48.718;8.992;2023-04-23T09:30:44;1.10;;;1.10;;
16969;SDS011;8601;48.718;8.992;2023-04-23T09:33:15;1.60;;;1.30;;
16969;SDS011;8601;48.718;8.992;2023-04-23T09:35:42;1.30;;;1.20;;
16969;SDS011;8601;48.718;8.992;2023-04-23T09:38:12;1.57;;;1.20;;
16969;SDS011;8601;48.718;8.992;2023-04-23T09:40:40;1.67;;;1.30;;
16969;SDS011;8601;48.718;8.992;2023-04-23T09:43:09;1.40;;;1.30;;
16969;SDS011;8601;48.718;8.992;2023-04-23T09:45:36;2.50;;;1.30;;
16969;SDS011;8601;48.718;8.992;2023-04-23T09:48:13;1.57;;;1.37;;
16969;SDS011;8601;48.718;8.992;2023-04-23T09:50:40;2.57;;;1.33;;
16969;SDS011;8601;48.718;8.992;2023-04-23T09:53:08;1.50;;;1.20;;
16969;SDS011;8601;48.718;8.992;2023-04-23T09:55:35;1.37;;;0.90;;
16969;SDS011;8601;48.718;8.992;2023-04-23T09:58:05;1.50;;;1.23;;
16969;SDS011;8601;48.718;8.992;2023-04-23T10:00:40;1.10;;;1.10;;
16969;SDS011;8601;48.718;8.992;2023-04-23T10:03:07;0.93;;;0.80;;
16969;SDS011;8601;48.718;8.992;2023-04-23T10:05:38;2.20;;;1.17;;
16969;SDS011;8601;48.718;8.992;2023-04-23T10:08:07;1.63;;;1.40;;
16969;SDS011;8601;48.718;8.992;2023-04-23T10:10:34;1.27;;;1.17;;
16969;SDS011;8601;48.718;8.992;2023-04-23T10:13:01;1.20;;;1.10;;
16969;SDS011;8601;48.718;8.992;2023-04-23T10:15:29;1.30;;;1.10;;
16969;SDS011;8601;48.718;8.992;2023-04-23T10:17:59;1.83;;;1.00;;
16969;SDS011;8601;48.718;8.992;2023-04-23T10:20:29;2.67;;;2.47;;
16969;SDS011;8601;48.718;8.992;2023-04-23T10:22:56;1.70;;;1.17;;
16969;SDS011;8601;48.718;8.992;2023-04-23T10:25:25;1.40;;;1.30;;
16969;SDS011;8601;48.718;8.992;2023-04-23T10:27:53;1.57;;;1.20;;
16969;SDS011;8601;48.718;8.992;2023-04-23T10:30:21;1.37;;;1.10;;
16969;SDS011;8601;48.718;8.992;2023-04-23T10:32:48;1.30;;;1.10;;
16969;SDS011;8601;48.718;8.992;2023-04-23T10:35:17;1.10;;;1.00;;
16969;SDS011;8601;48.718;8.992;2023-04-23T10:37:44;1.40;;;1.10;;
16969;SDS011;8601;48.718;8.992;2023-04-23T10:40:13;1.53;;;0.90;;
16969;SDS011;8601;48.718;8.992;2023-04-23T10:42:45;1.70;;;1.20;;
16969;SDS011;8601;48.718;8.992;2023-04-23T10:45:15;1.30;;;1.17;;
16969;SDS011;8601;48.718;8.992;2023-04-23T10:47:43;2.27;;;1.27;;
16969;SDS011;8601;48.718;8.992;2023-04-23T10:50:18;1.67;;;1.17;;
16969;SDS011;8601;48.718;8.992;2023-04-23T10:52:50;2.07;;;1.10;;
16969;SDS011;8601;48.718;8.992;2023-04-23T10:55:21;1.10;;;1.00;;
16969;SDS011;8601;48.718;8.992;2023-04-23T10:57:58;1.30;;;1.20;;
16969;SDS011;8601;48.718;8.992;2023-04-23T11:00:27;1.20;;;1.00;;
16969;SDS011;8601;48.718;8.992;2023-04-23T11:02:55;3.17;;;1.20;;
16969;SDS011;8601;48.718;8.992;2023-04-23T11:05:23;2.63;;;1.10;;
16969;SDS011;8601;48.718;8.992;2023-04-23T11:08:03;1.20;;;1.00;;
16969;SDS011;8601;48.718;8.992;2023-04-23T11:10:31;0.90;;;0.90;;
16969;SDS011;8601;48.718;8.992;2023-04-23T11:18:55;1.60;;;1.03;;
16969;SDS011;8601;48.718;8.992;2023-04-23T11:24:26;1.00;;;1.00;;
16969;SDS011;8601;48.718;8.992;2023-04-23T11:26:54;0.80;;;0.80;;
16969;SDS011;8601;48.718;8.992;2023-04-23T11:29:22;1.60;;;0.93;;
16969;SDS011;8601;48.718;8.992;2023-04-23T11:31:50;1.00;;;0.90;;
16969;SDS011;8601;48.718;8.992;2023-04-23T11:34:18;1.00;;;0.90;;
16969;SDS011;8601;48.718;8.992;2023-04-23T11:36:46;1.57;;;1.17;;
16969;SDS011;8601;48.718;8.992;2023-04-23T11:39:18;1.40;;;1.10;;
16969;SDS011;8601;48.718;8.992;2023-04-23T11:41:45;1.00;;;1.00;;
16969;SDS011;8601;48.718;8.992;2023-04-23T11:44:13;1.20;;;1.10;;
16969;SDS011;8601;48.718;8.992;2023-04-23T11:46:41;0.90;;;0.90;;
16969;SDS011;8601;48.718;8.992;2023-04-23T11:49:08;0.90;;;0.90;;
16969;SDS011;8601;48.718;8.992;2023-04-23T11:51:39;1.20;;;0.93;;
16969;SDS011;8601;48.718;8.992;2023-04-23T11:54:08;1.20;;;1.10;;
16969;SDS011;8601;48.718;8.992;2023-04-23T11:56:37;1.67;;;1.00;;
16969;SDS011;8601;48.718;8.992;2023-04-23T11:59:05;1.77;;;1.30;;
16969;SDS011;8601;48.718;8.992;2023-04-23T12:01:44;1.20;;;1.10;;
16969;SDS011;8601;48.718;8.992;2023-04-23T12:04:13;1.37;;;1.00;;
16969;SDS011;8601;48.718;8.992;2023-04-23T12:06:42;1.73;;;0.90;;
16969;SDS011;8601;48.718;8.992;2023-04-23T12:09:11;1.30;;;1.00;;
16969;SDS011;8601;48.718;8.992;2023-04-23T12:11:40;0.93;;;0.90;;
16969;SDS011;8601;48.718;8.992;2023-04-23T12:14:10;1.10;;;1.00;;
16969;SDS011;8601;48.718;8.992;2023-04-23T12:16:38;3.43;;;1.17;;
16969;SDS011;8601;48.718;8.992;2023-04-23T12:19:07;0.97;;;0.90;;
16969;SDS011;8601;48.718;8.992;2023-04-23T12:21:45;0.90;;;0.90;;
16969;SDS011;8601;48.718;8.992;2023-04-23T12:24:13;1.27;;;1.17;;
16969;SDS011;8601;48.718;8.992;2023-04-23T12:26:41;1.20;;;1.10;;
16969;SDS011;8601;48.718;8.992;2023-04-23T12:29:08;1.93;;;1.00;;
16969;SDS011;8601;48.718;8.992;2023-04-23T12:31:38;1.80;;;1.20;;
16969;SDS011;8601;48.718;8.992;2023-04-23T12:34:05;2.90;;;1.00;;
16969;SDS011;8601;48.718;8.992;2023-04-23T12:36:34;1.13;;;1.00;;
16969;SDS011;8601;48.718;8.992;2023-04-23T12:39:17;1.23;;;0.87;;
16969;SDS011;8601;48.718;8.992;2023-04-23T12:41:51;1.07;;;0.93;;
16969;SDS011;8601;48.718;8.992;2023-04-23T12:44:19;0.90;;;0.90;;
16969;SDS011;8601;48.718;8.992;2023-04-23T12:46:53;1.43;;;1.10;;
16969;SDS011;8601;48.718;8.992;2023-04-23T12:49:21;0.90;;;0.73;;
16969;SDS011;8601;48.718;8.992;2023-04-23T12:51:48;1.77;;;0.93;;
16969;SDS011;8601;48.718;8.992;2023-04-23T12:54:16;1.03;;;0.90;;
16969;SDS011;8601;48.718;8.992;2023-04-23T12:56:43;1.47;;;1.00;;
16969;SDS011;8601;48.718;8.992;2023-04-23T12:59:12;1.00;;;0.90;;
16969;SDS011;8601;48.718;8.992;2023-04-23T13:01:39;2.27;;;1.33;;
16969;SDS011;8601;48.718;8.992;2023-04-23T13:04:05;1.90;;;0.97;;
16969;SDS011;8601;48.718;8.992;2023-04-23T13:06:33;1.13;;;1.00;;
16969;SDS011;8601;48.718;8.992;2023-04-23T13:09:00;1.23;;;0.90;;
16969;SDS011;8601;48.718;8.992;2023-04-23T13:11:29;2.27;;;1.20;;
16969;SDS011;8601;48.718;8.992;2023-04-23T13:13:56;0.97;;;0.87;;
16969;SDS011;8601;48.718;8.992;2023-04-23T13:16:24;1.90;;;1.13;;
16969;SDS011;8601;48.718;8.992;2023-04-23T13:18:51;1.10;;;0.93;;
16969;SDS011;8601;48.718;8.992;2023-04-23T13:21:18;1.37;;;0.80;;
16969;SDS011;8601;48.718;8.992;2023-04-23T13:23:45;1.77;;;0.87;;
16969;SDS011;8601;48.718;8.992;2023-04-23T13:26:12;0.93;;;0.77;;
16969;SDS011;8601;48.718;8.992;2023-04-23T13:28:41;1.00;;;0.90;;
16969;SDS011;8601;48.718;8.992;2023-04-23T13:31:08;1.97;;;1.00;;
16969;SDS011;8601;48.718;8.992;2023-04-23T13:33:37;1.70;;;0.90;;
16969;SDS011;8601;48.718;8.992;2023-04-23T13:36:05;1.33;;;0.80;;
16969;SDS011;8601;48.718;8.992;2023-04-23T13:38:32;1.73;;;0.83;;
16969;SDS011;8601;48.718;8.992;2023-04-23T13:41:00;1.23;;;0.90;;
16969;SDS011;8601;48.718;8.992;2023-04-23T13:43:26;2.03;;;0.90;;
16969;SDS011;8601;48.718;8.992;2023-04-23T13:45:53;0.80;;;0.73;;
16969;SDS011;8601;48.718;8.992;2023-04-23T13:48:21;1.77;;;0.90;;
16969;SDS011;8601;48.718;8.992;2023-04-23T13:50:53;2.40;;;0.80;;
16969;SDS011;8601;48.718;8.992;2023-04-23T13:53:20;1.37;;;1.23;;
16969;SDS011;8601;48.718;8.992;2023-04-23T13:55:47;0.73;;;0.73;;
16969;SDS011;8601;48.718;8.992;2023-04-23T13:58:14;1.50;;;1.00;;
16969;SDS011;8601;48.718;8.992;2023-04-23T14:00:41;2.83;;;1.00;;
16969;SDS011;8601;48.718;8.992;2023-04-23T14:03:09;2.00;;;1.00;;
16969;SDS011;8601;48.718;8.992;2023-04-23T14:05:36;1.80;;;0.93;;
16969;SDS011;8601;48.718;8.992;2023-04-23T14:08:04;2.33;;;1.20;;
16969;SDS011;8601;48.718;8.992;2023-04-23T14:10:32;1.50;;;1.10;;
16969;SDS011;8601;48.718;8.992;2023-04-23T14:12:59;1.77;;;0.90;;
16969;SDS011;8601;48.718;8.992;2023-04-23T14:15:27;1.77;;;1.07;;
16969;SDS011;8601;48.718;8.992;2023-04-23T14:17:54;1.50;;;0.90;;
16969;SDS011;8601;48.718;8.992;2023-04-23T14:20:21;2.70;;;0.93;;
16969;SDS011;8601;48.718;8.992;2023-04-23T14:22:48;0.80;;;0.80;;
16969;SDS011;8601;48.718;8.992;2023-04-23T14:25:24;1.60;;;1.10;;
16969;SDS011;8601;48.718;8.992;2023-04-23T14:28:00;1.27;;;1.17;;
16969;SDS011;8601;48.718;8.992;2023-04-23T14:30:36;1.83;;;1.00;;
16969;SDS011;8601;48.718;8.992;2023-04-23T14:33:06;1.80;;;0.90;;
16969;SDS011;8601;48.718;8.992;2023-04-23T14:35:33;1.77;;;1.20;;
16969;SDS011;8601;48.718;8.992;2023-04-23T14:38:00;1.60;;;0.90;;
16969;SDS011;8601;48.718;8.992;2023-04-23T14:40:29;1.17;;;0.83;;
16969;SDS011;8601;48.718;8.992;2023-04-23T14:42:56;1.10;;;1.00;;
16969;SDS011;8601;48.718;8.992;2023-04-23T14:45:22;1.43;;;1.13;;
16969;SDS011;8601;48.718;8.992;2023-04-23T14:47:50;1.07;;;0.97;;
16969;SDS011;8601;48.718;8.992;2023-04-23T14:50:17;1.00;;;0.90;;
16969;SDS011;8601;48.718;8.992;2023-04-23T14:52:46;2.93;;;1.10;;
16969;SDS011;8601;48.718;8.992;2023-04-23T14:55:14;1.10;;;1.00;;
16969;SDS011;8601;48.718;8.992;2023-04-23T14:57:42;1.30;;;0.90;;
16969;SDS011;8601;48.718;8.992;2023-04-23T15:00:09;1.90;;;1.00;;
16969;SDS011;8601;48.718;8.992;2023-04-23T15:02:39;2.27;;;1.10;;
16969;SDS011;8601;48.718;8.992;2023-04-23T15:05:07;1.73;;;0.97;;
16969;SDS011;8601;48.718;8.992;2023-04-23T15:07:34;1.20;;;0.97;;
16969;SDS011;8601;48.718;8.992;2023-04-23T15:10:01;0.97;;;0.90;;
16969;SDS011;8601;48.718;8.992;2023-04-23T15:12:47;1.23;;;1.00;;
16969;SDS011;8601;48.718;8.992;2023-04-23T15:15:20;1.03;;;0.93;;